createdAt,value
2022-12-03T00:04:49.999Z,100.00
2022-12-03T00:09:51.431Z,100.00
2022-12-03T00:14:52.961Z,100.00
2022-12-03T00:19:54.335Z,100.00
2022-12-03T00:24:55.999Z,100.00
2022-12-03T00:29:57.574Z,100.00
2022-12-03T00:34:58.913Z,100.00
2022-12-03T00:40:00.278Z,100.00
2022-12-03T00:45:01.646Z,100.00
2022-12-03T00:50:03.166Z,100.00
2022-12-03T00:55:04.640Z,100.00
2022-12-03T01:00:06.617Z,100.00
2022-12-03T01:05:08.257Z,100.00
2022-12-03T01:10:09.946Z,100.00
2022-12-03T01:15:11.338Z,100.00
2022-12-03T01:20:12.764Z,100.00
2022-12-03T01:25:14.379Z,100.00
2022-12-03T01:30:15.723Z,100.00
2022-12-03T01:35:17.062Z,100.00
2022-12-03T01:40:19.778Z,99.57
2022-12-03T01:45:22.629Z,99.19
2022-12-03T01:50:31.768Z,99.74
2022-12-03T01:55:33.189Z,100.00
2022-12-03T02:00:34.554Z,100.00
2022-12-03T02:05:36.326Z,100.00
2022-12-03T02:10:38.345Z,100.00
2022-12-03T02:15:40.372Z,100.00
2022-12-03T02:20:46.734Z,100.00
2022-12-03T02:25:48.118Z,100.00
2022-12-03T02:30:49.455Z,100.00
2022-12-03T02:35:50.803Z,100.00
2022-12-03T02:40:53.901Z,100.00
2022-12-03T02:45:56.655Z,100.00
2022-12-03T02:51:00.414Z,100.00
2022-12-03T02:56:02.606Z,100.00
2022-12-03T03:01:04.232Z,100.00
2022-12-03T03:06:06.810Z,100.00
2022-12-03T03:11:08.314Z,100.00
2022-12-03T03:16:09.882Z,100.00
2022-12-03T03:21:12.278Z,98.62
2022-12-03T03:26:13.749Z,100.00
2022-12-03T03:31:16.456Z,100.00
2022-12-03T03:36:18.379Z,100.00
2022-12-03T03:41:21.090Z,100.00
2022-12-03T03:46:22.826Z,100.00
2022-12-03T03:51:24.261Z,100.00
2022-12-03T03:56:25.982Z,99.80
2022-12-03T04:01:27.744Z,100.00
2022-12-03T04:06:29.124Z,100.00
2022-12-03T04:11:49.267Z,100.00
2022-12-03T04:16:50.685Z,100.00
2022-12-03T04:22:30.638Z,100.00
2022-12-03T04:27:50.701Z,100.00
2022-12-03T04:33:10.540Z,100.00
2022-12-03T04:38:12.807Z,100.00
2022-12-03T04:43:14.192Z,100.00
2022-12-03T04:48:15.569Z,100.00
2022-12-03T04:53:17.217Z,100.00
2022-12-03T04:58:18.533Z,100.00
2022-12-03T05:03:19.853Z,99.18
2022-12-03T05:08:21.159Z,100.00
2022-12-03T05:13:22.491Z,99.04
2022-12-03T05:18:23.976Z,98.90
2022-12-03T05:23:25.355Z,99.32
2022-12-03T05:28:26.728Z,100.00
2022-12-03T05:33:28.102Z,100.00
2022-12-03T05:38:29.423Z,99.85
2022-12-03T05:43:30.731Z,100.00
2022-12-03T05:48:32.064Z,99.99
2022-12-03T05:53:33.412Z,99.36
2022-12-03T05:58:34.756Z,100.00
2022-12-03T06:03:36.299Z,100.00
2022-12-03T06:08:37.718Z,100.00
2022-12-03T06:13:39.037Z,100.00
2022-12-03T06:18:40.358Z,99.63
2022-12-03T06:23:44.712Z,99.26
2022-12-03T06:28:47.637Z,99.07
2022-12-03T06:33:49.006Z,99.02
2022-12-03T06:38:50.311Z,97.42
2022-12-03T06:43:51.640Z,98.58
2022-12-03T06:48:52.971Z,98.24
2022-12-03T06:53:54.317Z,97.37
2022-12-03T06:58:55.693Z,98.32
2022-12-03T07:03:57.003Z,97.94
2022-12-03T07:08:58.366Z,94.80
2022-12-03T07:14:05.129Z,95.89
2022-12-03T07:19:07.297Z,96.44
2022-12-03T07:24:09.013Z,97.73
2022-12-03T07:29:13.490Z,98.15
2022-12-03T07:34:14.890Z,97.36
2022-12-03T07:39:16.236Z,99.04
2022-12-03T07:44:17.637Z,97.29
2022-12-03T07:49:18.993Z,97.71
2022-12-03T07:54:20.943Z,96.65
2022-12-03T07:59:22.380Z,97.82
2022-12-03T08:04:23.822Z,96.72
2022-12-03T08:09:25.156Z,98.16
2022-12-03T08:14:27.413Z,97.36
2022-12-03T08:19:28.754Z,96.45
2022-12-03T08:24:30.331Z,95.75
2022-12-03T08:29:31.649Z,95.74
2022-12-03T08:34:37.881Z,96.18
2022-12-03T08:39:55.021Z,96.39
2022-12-03T08:44:56.835Z,96.49
2022-12-03T08:50:03.303Z,94.52
2022-12-03T08:55:24.653Z,95.41
2022-12-03T09:00:26.306Z,92.75
2022-12-03T09:05:34.789Z,93.94
2022-12-03T09:10:36.414Z,93.07
2022-12-03T09:15:37.721Z,92.82
2022-12-03T09:20:39.057Z,95.34
2022-12-03T09:25:40.366Z,94.87
2022-12-03T09:30:41.702Z,94.50
2022-12-03T09:35:43.094Z,95.36
2022-12-03T09:40:44.398Z,94.28
2022-12-03T09:45:46.353Z,93.79
2022-12-03T09:50:48.169Z,93.49
2022-12-03T09:55:49.587Z,93.49
2022-12-03T10:00:52.268Z,92.68
2022-12-03T10:05:53.684Z,91.37
2022-12-03T10:10:56.604Z,91.19
2022-12-03T10:15:59.357Z,91.03
2022-12-03T10:21:00.838Z,91.33
2022-12-03T10:26:03.612Z,92.42
2022-12-03T10:31:06.317Z,91.80
2022-12-03T10:36:15.001Z,92.31
2022-12-03T10:41:27.296Z,90.50
2022-12-03T10:46:28.734Z,91.50
2022-12-03T10:51:30.375Z,89.98
2022-12-03T10:56:31.859Z,90.91
2022-12-03T11:01:33.251Z,91.25
2022-12-03T11:06:34.718Z,91.75
2022-12-03T11:11:36.217Z,92.98
2022-12-03T11:16:40.342Z,91.83
2022-12-03T11:22:00.530Z,91.78
2022-12-03T11:27:01.823Z,92.12
2022-12-03T11:32:03.188Z,91.68
2022-12-03T11:37:10.664Z,90.16
2022-12-03T11:42:27.340Z,89.55
2022-12-03T11:47:29.460Z,90.62
2022-12-03T11:52:33.021Z,90.09
2022-12-03T11:57:38.538Z,91.17
2022-12-03T12:02:40.031Z,90.56
2022-12-03T12:07:41.888Z,89.78
2022-12-03T12:12:53.294Z,91.20
2022-12-03T12:17:56.175Z,92.91
2022-12-03T12:23:17.441Z,91.31
2022-12-03T12:28:18.749Z,90.26
2022-12-03T12:33:24.353Z,90.75
2022-12-03T12:38:28.432Z,92.19
2022-12-03T12:43:31.732Z,90.96
2022-12-03T12:48:36.141Z,89.83
2022-12-03T12:53:38.788Z,92.61
2022-12-03T12:58:40.309Z,90.88
2022-12-03T13:03:41.619Z,89.81
2022-12-03T13:08:45.045Z,88.37
2022-12-03T13:13:46.365Z,89.17
2022-12-03T13:18:49.358Z,90.11
2022-12-03T13:23:52.094Z,89.76
2022-12-03T13:28:55.648Z,89.15
2022-12-03T13:33:57.899Z,88.70
2022-12-03T13:38:59.289Z,89.59
2022-12-03T13:44:00.600Z,91.26
2022-12-03T13:49:02.295Z,91.48
2022-12-03T13:54:05.417Z,91.40
2022-12-03T13:59:07.368Z,90.52
2022-12-03T14:04:08.759Z,90.54
2022-12-03T14:09:10.088Z,91.38
2022-12-03T14:14:11.455Z,90.75
2022-12-03T14:19:13.277Z,92.13
2022-12-03T14:24:14.593Z,91.34
2022-12-03T14:29:15.913Z,91.78
2022-12-03T14:34:17.219Z,91.86
2022-12-03T14:39:18.593Z,91.88
2022-12-03T14:44:21.932Z,92.59
2022-12-03T14:49:23.259Z,91.92
2022-12-03T14:54:24.562Z,91.11
2022-12-03T14:59:27.864Z,91.34
2022-12-03T15:04:29.465Z,93.07
2022-12-03T15:09:30.862Z,92.14
2022-12-03T15:14:32.198Z,91.78
2022-12-03T15:19:33.611Z,92.38
2022-12-03T15:24:34.918Z,93.16
2022-12-03T15:29:36.255Z,92.47
2022-12-03T15:34:37.764Z,92.32
2022-12-03T15:39:43.706Z,92.47
2022-12-03T15:44:49.440Z,92.45
2022-12-03T15:49:50.767Z,92.12
2022-12-03T15:54:52.114Z,93.05
2022-12-03T15:59:54.423Z,93.69
2022-12-03T16:04:55.854Z,93.15
2022-12-03T16:09:57.328Z,93.35
2022-12-03T16:14:59.016Z,93.52
2022-12-03T16:20:00.435Z,93.33
2022-12-03T16:25:03.139Z,93.52
2022-12-03T16:30:05.588Z,93.66
2022-12-03T16:35:07.169Z,93.81
2022-12-03T16:40:08.770Z,94.17
2022-12-03T16:45:10.277Z,93.85
2022-12-03T16:50:16.442Z,95.59
2022-12-03T16:55:22.386Z,95.11
2022-12-03T17:00:25.787Z,95.05
2022-12-03T17:05:27.106Z,94.55
2022-12-03T17:10:28.495Z,93.86
2022-12-03T17:15:30.466Z,93.69
2022-12-03T17:20:32.657Z,93.64
2022-12-03T17:25:34.459Z,93.69
2022-12-03T17:30:35.805Z,93.45
2022-12-03T17:35:37.201Z,93.67
2022-12-03T17:40:38.817Z,94.47
2022-12-03T17:45:40.515Z,94.34
2022-12-03T17:50:42.018Z,94.00
2022-12-03T17:55:45.198Z,94.24
2022-12-03T18:00:46.757Z,95.30
2022-12-03T18:05:48.119Z,95.56
2022-12-03T18:10:49.579Z,95.26
2022-12-03T18:15:50.994Z,94.17
2022-12-03T18:20:53.206Z,94.33
2022-12-03T18:25:54.867Z,94.43
2022-12-03T18:30:56.355Z,94.08
2022-12-03T18:35:58.265Z,93.94
2022-12-03T18:40:59.863Z,93.88
2022-12-03T18:46:01.167Z,93.73
2022-12-03T18:51:02.503Z,93.90
2022-12-03T18:56:03.881Z,93.43
2022-12-03T19:01:05.766Z,94.04
2022-12-03T19:06:14.154Z,94.11
2022-12-03T19:11:18.483Z,93.99
2022-12-03T19:16:19.893Z,93.47
2022-12-03T19:21:21.630Z,94.93
2022-12-03T19:26:23.015Z,94.35
2022-12-03T19:31:24.659Z,94.00
2022-12-03T19:36:27.609Z,95.00
2022-12-03T19:41:32.510Z,94.56
2022-12-03T19:46:33.888Z,93.82
2022-12-03T19:51:36.039Z,94.14
2022-12-03T19:56:37.818Z,93.74
2022-12-03T20:01:41.037Z,93.59
2022-12-03T20:06:42.537Z,94.06
2022-12-03T20:11:49.694Z,93.80
2022-12-03T20:16:51.791Z,94.29
2022-12-03T20:21:56.390Z,93.98
2022-12-03T20:27:02.248Z,94.20
2022-12-03T20:32:04.873Z,93.49
2022-12-03T20:37:06.345Z,93.90
2022-12-03T20:42:08.965Z,96.85
2022-12-03T20:47:10.362Z,94.90
2022-12-03T20:52:11.745Z,94.64
2022-12-03T20:57:13.123Z,95.15
2022-12-03T21:02:14.727Z,95.23
2022-12-03T21:07:16.243Z,95.12
2022-12-03T21:12:17.621Z,95.19
2022-12-03T21:17:19.345Z,96.43
2022-12-03T21:22:20.755Z,95.35
2022-12-03T21:27:22.161Z,95.64
2022-12-03T21:32:23.524Z,96.46
2022-12-03T21:37:24.856Z,95.74
2022-12-03T21:42:36.652Z,95.43
2022-12-03T21:47:38.373Z,95.70
2022-12-03T21:52:39.896Z,96.12
2022-12-03T21:57:41.281Z,95.97
2022-12-03T22:02:42.890Z,96.10
2022-12-03T22:07:44.309Z,96.17
2022-12-03T22:12:45.689Z,95.67
2022-12-03T22:17:47.439Z,95.69
2022-12-03T22:22:48.762Z,95.58
2022-12-03T22:27:50.221Z,96.35
2022-12-03T22:32:51.609Z,97.77
2022-12-03T22:37:53.054Z,95.51
2022-12-03T22:42:54.371Z,95.36
2022-12-03T22:47:55.678Z,95.15
2022-12-03T22:52:56.978Z,95.39
2022-12-03T22:57:58.354Z,94.92
2022-12-03T23:02:59.943Z,95.57
2022-12-03T23:08:01.441Z,94.91
2022-12-03T23:13:03.358Z,93.96
2022-12-03T23:18:04.743Z,93.61
2022-12-03T23:23:06.079Z,92.97
2022-12-03T23:28:07.643Z,94.21
2022-12-03T23:33:08.991Z,94.16
2022-12-03T23:38:10.359Z,94.01
2022-12-03T23:43:11.734Z,92.47
2022-12-03T23:48:13.109Z,92.43
2022-12-03T23:53:14.680Z,92.88
2022-12-03T23:58:16.125Z,90.93
